sensor_id;sensor_type;location;lat;lon;timestamp;temperature;humidity
21184;DHT22;18176;49.502;11.754;2023-04-03T00:03:45;1.70;99.90
21184;DHT22;18176;49.502;11.754;2023-04-03T00:07:48;1.80;99.90
21184;DHT22;18176;49.502;11.754;2023-04-03T00:11:50;1.80;99.90
21184;DHT22;18176;49.502;11.754;2023-04-03T00:15:53;1.70;99.90
21184;DHT22;18176;49.502;11.754;2023-04-03T00:19:54;1.70;99.90
21184;DHT22;18176;49.502;11.754;2023-04-03T00:23:54;1.60;99.90
21184;DHT22;18176;49.502;11.754;2023-04-03T00:27:55;1.50;99.90
21184;DHT22;18176;49.502;11.754;2023-04-03T00:31:58;1.50;99.90
21184;DHT22;18176;49.502;11.754;2023-04-03T00:36:05;1.40;99.90
21184;DHT22;18176;49.502;11.754;2023-04-03T00:40:08;1.40;99.90
21184;DHT22;18176;49.502;11.754;2023-04-03T00:44:21;1.40;99.90
21184;DHT22;18176;49.502;11.754;2023-04-03T00:48:27;1.40;99.90
21184;DHT22;18176;49.502;11.754;2023-04-03T00:52:31;1.40;99.90
21184;DHT22;18176;49.502;11.754;2023-04-03T00:56:32;1.30;99.90
21184;DHT22;18176;49.502;11.754;2023-04-03T01:00:34;1.40;99.90
21184;DHT22;18176;49.502;11.754;2023-04-03T01:04:41;1.40;99.90
21184;DHT22;18176;49.502;11.754;2023-04-03T01:08:44;1.40;99.90
21184;DHT22;18176;49.502;11.754;2023-04-03T01:12:48;1.40;99.90
21184;DHT22;18176;49.502;11.754;2023-04-03T01:16:54;1.50;99.90
21184;DHT22;18176;49.502;11.754;2023-04-03T01:25:47;1.50;99.90
21184;DHT22;18176;49.502;11.754;2023-04-03T01:29:49;1.50;99.90
21184;DHT22;18176;49.502;11.754;2023-04-03T01:33:54;1.50;99.90
21184;DHT22;18176;49.502;11.754;2023-04-03T01:37:54;1.40;99.90
21184;DHT22;18176;49.502;11.754;2023-04-03T01:41:55;1.50;99.90
21184;DHT22;18176;49.502;11.754;2023-04-03T01:46:03;1.40;99.90
21184;DHT22;18176;49.502;11.754;2023-04-03T01:50:09;1.40;99.90
21184;DHT22;18176;49.502;11.754;2023-04-03T01:54:10;1.30;99.90
21184;DHT22;18176;49.502;11.754;2023-04-03T01:58:11;1.30;99.90
21184;DHT22;18176;49.502;11.754;2023-04-03T02:02:12;1.20;99.90
21184;DHT22;18176;49.502;11.754;2023-04-03T02:06:15;1.10;99.90
21184;DHT22;18176;49.502;11.754;2023-04-03T02:10:16;1.10;99.90
21184;DHT22;18176;49.502;11.754;2023-04-03T02:14:17;1.00;99.90
21184;DHT22;18176;49.502;11.754;2023-04-03T02:18:19;1.00;99.90
21184;DHT22;18176;49.502;11.754;2023-04-03T02:22:22;0.90;99.90
21184;DHT22;18176;49.502;11.754;2023-04-03T02:26:23;1.00;99.90
21184;DHT22;18176;49.502;11.754;2023-04-03T02:30:27;1.10;99.90
21184;DHT22;18176;49.502;11.754;2023-04-03T02:34:28;1.20;99.90
21184;DHT22;18176;49.502;11.754;2023-04-03T02:38:33;1.30;99.90
21184;DHT22;18176;49.502;11.754;2023-04-03T02:42:34;1.30;99.90
21184;DHT22;18176;49.502;11.754;2023-04-03T02:46:35;1.20;99.90
21184;DHT22;18176;49.502;11.754;2023-04-03T02:50:36;1.10;99.90
21184;DHT22;18176;49.502;11.754;2023-04-03T02:54:40;1.00;99.90
21184;DHT22;18176;49.502;11.754;2023-04-03T02:58:41;1.00;99.90
21184;DHT22;18176;49.502;11.754;2023-04-03T03:02:46;1.00;99.90
21184;DHT22;18176;49.502;11.754;2023-04-03T03:06:47;0.90;99.90
21184;DHT22;18176;49.502;11.754;2023-04-03T03:10:50;0.80;99.90
21184;DHT22;18176;49.502;11.754;2023-04-03T03:14:51;0.70;99.90
21184;DHT22;18176;49.502;11.754;2023-04-03T03:18:51;0.60;99.90
21184;DHT22;18176;49.502;11.754;2023-04-03T03:22:54;0.50;99.90
21184;DHT22;18176;49.502;11.754;2023-04-03T03:26:57;0.40;99.90
21184;DHT22;18176;49.502;11.754;2023-04-03T03:30:58;0.40;99.90
21184;DHT22;18176;49.502;11.754;2023-04-03T03:35:00;0.40;99.90
21184;DHT22;18176;49.502;11.754;2023-04-03T03:39:01;0.50;99.90
21184;DHT22;18176;49.502;11.754;2023-04-03T03:43:04;0.60;99.90
21184;DHT22;18176;49.502;11.754;2023-04-03T03:47:05;0.60;99.90
21184;DHT22;18176;49.502;11.754;2023-04-03T03:51:08;0.60;99.90
21184;DHT22;18176;49.502;11.754;2023-04-03T03:55:09;0.70;99.90
21184;DHT22;18176;49.502;11.754;2023-04-03T03:59:14;0.70;99.90
21184;DHT22;18176;49.502;11.754;2023-04-03T04:03:15;0.70;99.90
21184;DHT22;18176;49.502;11.754;2023-04-03T04:07:18;0.70;99.90
21184;DHT22;18176;49.502;11.754;2023-04-03T04:11:19;0.70;99.90
21184;DHT22;18176;49.502;11.754;2023-04-03T04:15:27;0.70;99.90
21184;DHT22;18176;49.502;11.754;2023-04-03T04:19:28;0.70;99.90
21184;DHT22;18176;49.502;11.754;2023-04-03T04:23:30;0.70;99.90
21184;DHT22;18176;49.502;11.754;2023-04-03T04:27:31;0.70;99.90
21184;DHT22;18176;49.502;11.754;2023-04-03T04:31:34;0.80;99.90
21184;DHT22;18176;49.502;11.754;2023-04-03T04:35:38;0.90;99.90
21184;DHT22;18176;49.502;11.754;2023-04-03T04:39:41;0.90;99.90
21184;DHT22;18176;49.502;11.754;2023-04-03T04:43:44;0.90;99.90
21184;DHT22;18176;49.502;11.754;2023-04-03T04:47:51;0.90;99.90
21184;DHT22;18176;49.502;11.754;2023-04-03T04:51:53;1.00;99.90
21184;DHT22;18176;49.502;11.754;2023-04-03T04:55:58;1.00;99.90
21184;DHT22;18176;49.502;11.754;2023-04-03T05:00:04;1.00;99.90
21184;DHT22;18176;49.502;11.754;2023-04-03T05:04:08;1.00;99.90
21184;DHT22;18176;49.502;11.754;2023-04-03T05:08:10;1.10;99.90
21184;DHT22;18176;49.502;11.754;2023-04-03T05:12:14;1.20;99.90
21184;DHT22;18176;49.502;11.754;2023-04-03T05:16:22;1.40;99.90
21184;DHT22;18176;49.502;11.754;2023-04-03T05:20:27;1.60;99.90
21184;DHT22;18176;49.502;11.754;2023-04-03T05:24:28;1.60;99.90
21184;DHT22;18176;49.502;11.754;2023-04-03T05:28:31;1.70;99.90
21184;DHT22;18176;49.502;11.754;2023-04-03T05:32:32;1.80;99.90
21184;DHT22;18176;49.502;11.754;2023-04-03T05:37:02;1.90;99.90
21184;DHT22;18176;49.502;11.754;2023-04-03T05:41:04;2.00;99.90
21184;DHT22;18176;49.502;11.754;2023-04-03T05:45:06;2.20;99.90
21184;DHT22;18176;49.502;11.754;2023-04-03T05:49:08;2.30;99.90
21184;DHT22;18176;49.502;11.754;2023-04-03T05:53:17;2.30;99.90
21184;DHT22;18176;49.502;11.754;2023-04-03T05:57:22;2.30;99.90
21184;DHT22;18176;49.502;11.754;2023-04-03T06:01:23;2.30;99.90
21184;DHT22;18176;49.502;11.754;2023-04-03T06:05:26;2.50;99.90
21184;DHT22;18176;49.502;11.754;2023-04-03T06:09:30;2.60;99.90
21184;DHT22;18176;49.502;11.754;2023-04-03T06:13:31;2.60;99.90
21184;DHT22;18176;49.502;11.754;2023-04-03T06:17:33;2.60;99.90
21184;DHT22;18176;49.502;11.754;2023-04-03T06:21:34;2.80;99.90
21184;DHT22;18176;49.502;11.754;2023-04-03T06:25:38;2.90;99.90
21184;DHT22;18176;49.502;11.754;2023-04-03T06:29:40;3.00;99.90
21184;DHT22;18176;49.502;11.754;2023-04-03T06:33:42;3.00;99.90
21184;DHT22;18176;49.502;11.754;2023-04-03T06:37:43;3.00;99.90
21184;DHT22;18176;49.502;11.754;2023-04-03T06:41:46;3.10;99.90
21184;DHT22;18176;49.502;11.754;2023-04-03T06:45:48;3.20;99.90
21184;DHT22;18176;49.502;11.754;2023-04-03T06:49:48;3.30;99.90
21184;DHT22;18176;49.502;11.754;2023-04-03T06:53:52;3.30;99.90
21184;DHT22;18176;49.502;11.754;2023-04-03T06:57:57;3.40;99.90
21184;DHT22;18176;49.502;11.754;2023-04-03T07:01:58;3.40;99.90
21184;DHT22;18176;49.502;11.754;2023-04-03T07:05:58;3.40;99.90
21184;DHT22;18176;49.502;11.754;2023-04-03T07:10:03;3.60;99.90
21184;DHT22;18176;49.502;11.754;2023-04-03T07:14:07;3.80;99.90
21184;DHT22;18176;49.502;11.754;2023-04-03T07:18:08;3.90;99.90
21184;DHT22;18176;49.502;11.754;2023-04-03T07:22:08;4.10;99.90
21184;DHT22;18176;49.502;11.754;2023-04-03T07:26:09;4.20;99.90
21184;DHT22;18176;49.502;11.754;2023-04-03T07:30:13;4.10;99.90
21184;DHT22;18176;49.502;11.754;2023-04-03T07:34:14;4.30;99.90
21184;DHT22;18176;49.502;11.754;2023-04-03T07:38:15;4.50;99.90
21184;DHT22;18176;49.502;11.754;2023-04-03T07:42:17;4.60;99.90
21184;DHT22;18176;49.502;11.754;2023-04-03T07:46:21;4.80;99.90
21184;DHT22;18176;49.502;11.754;2023-04-03T07:50:22;4.80;99.90
21184;DHT22;18176;49.502;11.754;2023-04-03T07:54:26;4.70;99.90
21184;DHT22;18176;49.502;11.754;2023-04-03T07:58:27;4.70;99.90
21184;DHT22;18176;49.502;11.754;2023-04-03T08:02:30;4.90;99.90
21184;DHT22;18176;49.502;11.754;2023-04-03T08:06:32;4.90;99.90
21184;DHT22;18176;49.502;11.754;2023-04-03T08:10:43;5.60;99.90
21184;DHT22;18176;49.502;11.754;2023-04-03T08:14:43;6.00;99.90
21184;DHT22;18176;49.502;11.754;2023-04-03T08:18:46;6.60;99.90
21184;DHT22;18176;49.502;11.754;2023-04-03T08:22:47;7.20;99.90
21184;DHT22;18176;49.502;11.754;2023-04-03T08:26:48;7.20;99.90
21184;DHT22;18176;49.502;11.754;2023-04-03T08:30:49;7.30;99.90
21184;DHT22;18176;49.502;11.754;2023-04-03T08:34:52;7.50;99.90
21184;DHT22;18176;49.502;11.754;2023-04-03T08:38:54;7.70;99.90
21184;DHT22;18176;49.502;11.754;2023-04-03T08:43:12;7.80;99.90
21184;DHT22;18176;49.502;11.754;2023-04-03T08:47:36;7.50;99.90
21184;DHT22;18176;49.502;11.754;2023-04-03T08:51:46;8.10;99.90
21184;DHT22;18176;49.502;11.754;2023-04-03T08:55:50;8.70;99.90
21184;DHT22;18176;49.502;11.754;2023-04-03T08:59:53;8.00;99.90
21184;DHT22;18176;49.502;11.754;2023-04-03T09:03:54;7.60;99.90
21184;DHT22;18176;49.502;11.754;2023-04-03T09:08:00;6.60;99.90
21184;DHT22;18176;49.502;11.754;2023-04-03T09:12:15;6.40;99.90
21184;DHT22;18176;49.502;11.754;2023-04-03T09:16:29;6.50;99.90
21184;DHT22;18176;49.502;11.754;2023-04-03T09:20:43;6.50;99.90
21184;DHT22;18176;49.502;11.754;2023-04-03T09:24:57;6.40;99.90
21184;DHT22;18176;49.502;11.754;2023-04-03T09:29:06;6.20;99.90
21184;DHT22;18176;49.502;11.754;2023-04-03T09:33:09;6.10;99.90
21184;DHT22;18176;49.502;11.754;2023-04-03T09:37:35;6.00;99.90
21184;DHT22;18176;49.502;11.754;2023-04-03T09:41:40;6.30;99.90
21184;DHT22;18176;49.502;11.754;2023-04-03T09:45:41;6.40;99.90
21184;DHT22;18176;49.502;11.754;2023-04-03T09:49:42;6.60;99.90
21184;DHT22;18176;49.502;11.754;2023-04-03T09:53:44;7.20;99.90
21184;DHT22;18176;49.502;11.754;2023-04-03T09:57:48;8.50;99.90
21184;DHT22;18176;49.502;11.754;2023-04-03T10:01:58;9.50;98.40
21184;DHT22;18176;49.502;11.754;2023-04-03T10:06:01;9.90;96.50
21184;DHT22;18176;49.502;11.754;2023-04-03T10:10:17;9.70;95.50
21184;DHT22;18176;49.502;11.754;2023-04-03T10:14:25;9.90;92.50
21184;DHT22;18176;49.502;11.754;2023-04-03T10:18:33;11.20;90.00
21184;DHT22;18176;49.502;11.754;2023-04-03T10:22:50;10.80;89.40
21184;DHT22;18176;49.502;11.754;2023-04-03T10:27:05;10.00;88.60
21184;DHT22;18176;49.502;11.754;2023-04-03T10:31:19;9.20;89.10
21184;DHT22;18176;49.502;11.754;2023-04-03T10:35:36;9.60;89.10
21184;DHT22;18176;49.502;11.754;2023-04-03T10:39:56;10.00;88.00
21184;DHT22;18176;49.502;11.754;2023-04-03T10:44:06;10.50;83.10
21184;DHT22;18176;49.502;11.754;2023-04-03T10:48:28;11.10;78.20
21184;DHT22;18176;49.502;11.754;2023-04-03T10:52:50;11.90;76.70
21184;DHT22;18176;49.502;11.754;2023-04-03T10:57:00;11.80;78.20
21184;DHT22;18176;49.502;11.754;2023-04-03T11:01:13;13.20;73.70
21184;DHT22;18176;49.502;11.754;2023-04-03T11:05:27;13.20;71.50
21184;DHT22;18176;49.502;11.754;2023-04-03T11:09:35;13.50;69.30
21184;DHT22;18176;49.502;11.754;2023-04-03T11:13:43;15.10;66.50
21184;DHT22;18176;49.502;11.754;2023-04-03T11:17:53;14.50;63.40
21184;DHT22;18176;49.502;11.754;2023-04-03T11:22:04;13.30;61.30
21184;DHT22;18176;49.502;11.754;2023-04-03T11:26:12;12.90;60.60
21184;DHT22;18176;49.502;11.754;2023-04-03T11:30:19;13.10;60.60
21184;DHT22;18176;49.502;11.754;2023-04-03T11:34:31;13.80;62.50
21184;DHT22;18176;49.502;11.754;2023-04-03T11:38:43;14.90;59.90
21184;DHT22;18176;49.502;11.754;2023-04-03T11:42:53;14.80;59.40
21184;DHT22;18176;49.502;11.754;2023-04-03T11:46:58;14.80;61.30
21184;DHT22;18176;49.502;11.754;2023-04-03T11:51:39;14.60;56.70
21184;DHT22;18176;49.502;11.754;2023-04-03T11:56:02;15.30;55.80
21184;DHT22;18176;49.502;11.754;2023-04-03T12:05:25;16.20;54.50
21184;DHT22;18176;49.502;11.754;2023-04-03T12:09:34;15.00;53.60
21184;DHT22;18176;49.502;11.754;2023-04-03T12:14:05;15.60;54.70
21184;DHT22;18176;49.502;11.754;2023-04-03T12:18:36;15.70;53.10
21184;DHT22;18176;49.502;11.754;2023-04-03T12:23:08;15.00;57.00
21184;DHT22;18176;49.502;11.754;2023-04-03T12:27:41;15.60;54.30
21184;DHT22;18176;49.502;11.754;2023-04-03T12:31:55;15.60;54.00
21184;DHT22;18176;49.502;11.754;2023-04-03T12:36:12;14.10;54.20
21184;DHT22;18176;49.502;11.754;2023-04-03T12:40:26;12.10;57.80
21184;DHT22;18176;49.502;11.754;2023-04-03T12:44:44;12.70;61.20
21184;DHT22;18176;49.502;11.754;2023-04-03T12:48:58;14.20;56.40
21184;DHT22;18176;49.502;11.754;2023-04-03T12:53:01;16.20;50.80
21184;DHT22;18176;49.502;11.754;2023-04-03T12:57:11;18.10;48.40
21184;DHT22;18176;49.502;11.754;2023-04-03T13:01:20;18.00;47.80
21184;DHT22;18176;49.502;11.754;2023-04-03T13:05:25;16.70;49.20
21184;DHT22;18176;49.502;11.754;2023-04-03T13:09:28;15.00;51.40
21184;DHT22;18176;49.502;11.754;2023-04-03T13:13:29;12.70;53.80
21184;DHT22;18176;49.502;11.754;2023-04-03T13:17:30;11.40;54.70
21184;DHT22;18176;49.502;11.754;2023-04-03T13:21:35;11.10;57.40
21184;DHT22;18176;49.502;11.754;2023-04-03T13:25:39;12.00;57.80
21184;DHT22;18176;49.502;11.754;2023-04-03T13:29:42;12.20;57.60
21184;DHT22;18176;49.502;11.754;2023-04-03T13:33:56;11.30;58.40
21184;DHT22;18176;49.502;11.754;2023-04-03T13:38:06;11.40;59.10
21184;DHT22;18176;49.502;11.754;2023-04-03T13:42:23;13.00;56.00
21184;DHT22;18176;49.502;11.754;2023-04-03T13:46:27;14.30;53.80
21184;DHT22;18176;49.502;11.754;2023-04-03T13:50:28;13.50;54.60
21184;DHT22;18176;49.502;11.754;2023-04-03T13:54:34;12.30;55.10
21184;DHT22;18176;49.502;11.754;2023-04-03T13:58:37;11.30;56.70
21184;DHT22;18176;49.502;11.754;2023-04-03T14:02:39;11.00;59.30
21184;DHT22;18176;49.502;11.754;2023-04-03T14:06:39;12.60;57.70
21184;DHT22;18176;49.502;11.754;2023-04-03T14:10:44;12.00;57.20
21184;DHT22;18176;49.502;11.754;2023-04-03T14:14:46;11.20;57.70
21184;DHT22;18176;49.502;11.754;2023-04-03T14:18:50;10.80;59.60
21184;DHT22;18176;49.502;11.754;2023-04-03T14:22:52;12.50;59.00
21184;DHT22;18176;49.502;11.754;2023-04-03T14:26:57;14.50;55.80
21184;DHT22;18176;49.502;11.754;2023-04-03T14:30:58;13.50;54.10
21184;DHT22;18176;49.502;11.754;2023-04-03T14:35:00;12.30;56.10
21184;DHT22;18176;49.502;11.754;2023-04-03T14:39:03;11.20;58.70
21184;DHT22;18176;49.502;11.754;2023-04-03T14:43:09;10.30;59.40
21184;DHT22;18176;49.502;11.754;2023-04-03T14:47:14;10.10;62.60
21184;DHT22;18176;49.502;11.754;2023-04-03T14:51:28;9.80;62.20
21184;DHT22;18176;49.502;11.754;2023-04-03T14:55:29;9.60;60.60
21184;DHT22;18176;49.502;11.754;2023-04-03T14:59:33;9.20;64.70
21184;DHT22;18176;49.502;11.754;2023-04-03T15:03:34;9.30;66.00
21184;DHT22;18176;49.502;11.754;2023-04-03T15:07:37;8.90;64.70
21184;DHT22;18176;49.502;11.754;2023-04-03T15:11:40;8.80;67.70
21184;DHT22;18176;49.502;11.754;2023-04-03T15:15:43;8.90;67.30
21184;DHT22;18176;49.502;11.754;2023-04-03T15:19:45;8.90;65.10
21184;DHT22;18176;49.502;11.754;2023-04-03T15:23:47;9.00;67.50
21184;DHT22;18176;49.502;11.754;2023-04-03T15:27:48;8.60;68.30
21184;DHT22;18176;49.502;11.754;2023-04-03T15:31:52;8.40;67.80
21184;DHT22;18176;49.502;11.754;2023-04-03T15:35:54;8.00;69.00
21184;DHT22;18176;49.502;11.754;2023-04-03T15:40:08;7.70;70.80
21184;DHT22;18176;49.502;11.754;2023-04-03T15:44:10;7.30;73.10
21184;DHT22;18176;49.502;11.754;2023-04-03T15:48:14;7.10;73.00
21184;DHT22;18176;49.502;11.754;2023-04-03T15:52:15;7.10;74.00
21184;DHT22;18176;49.502;11.754;2023-04-03T15:56:15;6.90;75.10
21184;DHT22;18176;49.502;11.754;2023-04-03T16:00:17;6.80;75.50
21184;DHT22;18176;49.502;11.754;2023-04-03T16:04:21;6.90;77.40
21184;DHT22;18176;49.502;11.754;2023-04-03T16:08:22;6.80;76.20
21184;DHT22;18176;49.502;11.754;2023-04-03T16:12:23;6.60;77.80
21184;DHT22;18176;49.502;11.754;2023-04-03T16:16:24;6.50;77.50
21184;DHT22;18176;49.502;11.754;2023-04-03T16:20:31;6.50;78.40
21184;DHT22;18176;49.502;11.754;2023-04-03T16:24:32;6.30;79.30
21184;DHT22;18176;49.502;11.754;2023-04-03T16:28:32;6.20;79.70
21184;DHT22;18176;49.502;11.754;2023-04-03T16:32:33;6.20;81.20
21184;DHT22;18176;49.502;11.754;2023-04-03T16:36:39;6.00;83.70
21184;DHT22;18176;49.502;11.754;2023-04-03T16:40:43;5.90;83.30
21184;DHT22;18176;49.502;11.754;2023-04-03T16:44:45;5.80;83.70
21184;DHT22;18176;49.502;11.754;2023-04-03T16:48:46;5.70;85.10
21184;DHT22;18176;49.502;11.754;2023-04-03T16:52:49;5.40;84.00
21184;DHT22;18176;49.502;11.754;2023-04-03T16:56:54;5.20;87.10
21184;DHT22;18176;49.502;11.754;2023-04-03T17:00:57;5.00;86.90
21184;DHT22;18176;49.502;11.754;2023-04-03T17:04:59;5.00;88.20
21184;DHT22;18176;49.502;11.754;2023-04-03T17:09:08;4.90;88.70
21184;DHT22;18176;49.502;11.754;2023-04-03T17:13:09;4.70;87.80
21184;DHT22;18176;49.502;11.754;2023-04-03T17:17:12;4.60;89.70
21184;DHT22;18176;49.502;11.754;2023-04-03T17:21:13;4.50;90.60
21184;DHT22;18176;49.502;11.754;2023-04-03T17:25:17;4.50;90.40
21184;DHT22;18176;49.502;11.754;2023-04-03T17:29:18;4.40;91.10
21184;DHT22;18176;49.502;11.754;2023-04-03T17:33:19;4.40;90.40
21184;DHT22;18176;49.502;11.754;2023-04-03T17:37:20;4.40;89.40
21184;DHT22;18176;49.502;11.754;2023-04-03T17:41:23;4.30;90.20
21184;DHT22;18176;49.502;11.754;2023-04-03T17:45:24;4.20;90.50
21184;DHT22;18176;49.502;11.754;2023-04-03T17:49:26;4.00;90.80
21184;DHT22;18176;49.502;11.754;2023-04-03T17:53:29;3.80;91.80
21184;DHT22;18176;49.502;11.754;2023-04-03T17:57:36;3.70;91.70
21184;DHT22;18176;49.502;11.754;2023-04-03T18:01:37;3.60;93.40
21184;DHT22;18176;49.502;11.754;2023-04-03T18:05:43;3.40;93.00
21184;DHT22;18176;49.502;11.754;2023-04-03T18:09:45;3.20;94.40
21184;DHT22;18176;49.502;11.754;2023-04-03T18:13:51;3.10;95.20
21184;DHT22;18176;49.502;11.754;2023-04-03T18:17:58;3.00;95.00
21184;DHT22;18176;49.502;11.754;2023-04-03T18:22:00;2.90;95.00
21184;DHT22;18176;49.502;11.754;2023-04-03T18:26:05;2.90;95.80
21184;DHT22;18176;49.502;11.754;2023-04-03T18:30:14;2.90;95.00
21184;DHT22;18176;49.502;11.754;2023-04-03T18:34:17;2.90;95.30
21184;DHT22;18176;49.502;11.754;2023-04-03T18:38:17;2.90;95.10
21184;DHT22;18176;49.502;11.754;2023-04-03T18:42:20;2.80;96.00
21184;DHT22;18176;49.502;11.754;2023-04-03T18:46:27;2.70;97.40
21184;DHT22;18176;49.502;11.754;2023-04-03T18:50:29;2.60;97.20
21184;DHT22;18176;49.502;11.754;2023-04-03T18:54:30;2.60;97.70
21184;DHT22;18176;49.502;11.754;2023-04-03T18:58:33;2.60;97.50
21184;DHT22;18176;49.502;11.754;2023-04-03T19:02:38;2.60;97.70
21184;DHT22;18176;49.502;11.754;2023-04-03T19:06:42;2.60;97.50
21184;DHT22;18176;49.502;11.754;2023-04-03T19:10:53;2.50;98.10
21184;DHT22;18176;49.502;11.754;2023-04-03T19:14:55;2.40;98.50
21184;DHT22;18176;49.502;11.754;2023-04-03T19:18:58;2.40;98.70
21184;DHT22;18176;49.502;11.754;2023-04-03T19:23:00;2.40;99.30
21184;DHT22;18176;49.502;11.754;2023-04-03T19:27:03;2.40;98.30
21184;DHT22;18176;49.502;11.754;2023-04-03T19:31:10;2.40;98.70
21184;DHT22;18176;49.502;11.754;2023-04-03T19:35:15;2.40;99.30
21184;DHT22;18176;49.502;11.754;2023-04-03T19:39:16;2.40;99.60
21184;DHT22;18176;49.502;11.754;2023-04-03T19:43:16;2.40;99.90
21184;DHT22;18176;49.502;11.754;2023-04-03T19:47:17;2.40;99.90
21184;DHT22;18176;49.502;11.754;2023-04-03T19:51:24;2.40;99.90
21184;DHT22;18176;49.502;11.754;2023-04-03T19:55:27;2.40;99.90
21184;DHT22;18176;49.502;11.754;2023-04-03T19:59:29;2.40;99.90
21184;DHT22;18176;49.502;11.754;2023-04-03T20:03:37;2.30;99.90
21184;DHT22;18176;49.502;11.754;2023-04-03T20:07:43;2.30;99.90
21184;DHT22;18176;49.502;11.754;2023-04-03T20:11:45;2.30;99.90
21184;DHT22;18176;49.502;11.754;2023-04-03T20:15:48;2.30;99.90
21184;DHT22;18176;49.502;11.754;2023-04-03T20:19:50;2.30;99.90
21184;DHT22;18176;49.502;11.754;2023-04-03T20:24:00;2.30;99.90
21184;DHT22;18176;49.502;11.754;2023-04-03T20:28:05;2.20;99.90
21184;DHT22;18176;49.502;11.754;2023-04-03T20:32:07;2.20;99.90
21184;DHT22;18176;49.502;11.754;2023-04-03T20:36:08;2.10;99.90
21184;DHT22;18176;49.502;11.754;2023-04-03T20:40:12;2.10;99.90
21184;DHT22;18176;49.502;11.754;2023-04-03T20:44:13;2.10;99.90
21184;DHT22;18176;49.502;11.754;2023-04-03T20:48:16;2.10;99.90
21184;DHT22;18176;49.502;11.754;2023-04-03T20:52:17;2.10;99.90
21184;DHT22;18176;49.502;11.754;2023-04-03T20:56:21;2.00;99.90
21184;DHT22;18176;49.502;11.754;2023-04-03T21:00:24;2.10;99.90
21184;DHT22;18176;49.502;11.754;2023-04-03T21:04:31;2.10;99.90
21184;DHT22;18176;49.502;11.754;2023-04-03T21:22:52;2.00;99.90
21184;DHT22;18176;49.502;11.754;2023-04-03T21:26:53;2.00;99.90
21184;DHT22;18176;49.502;11.754;2023-04-03T21:31:04;2.00;99.90
21184;DHT22;18176;49.502;11.754;2023-04-03T21:35:07;1.90;99.90
21184;DHT22;18176;49.502;11.754;2023-04-03T21:39:09;1.90;99.90
21184;DHT22;18176;49.502;11.754;2023-04-03T21:43:09;1.90;99.90
21184;DHT22;18176;49.502;11.754;2023-04-03T21:47:10;1.90;99.90
21184;DHT22;18176;49.502;11.754;2023-04-03T21:51:14;1.90;99.90
21184;DHT22;18176;49.502;11.754;2023-04-03T21:55:16;1.90;99.90
21184;DHT22;18176;49.502;11.754;2023-04-03T21:59:17;1.90;99.90
21184;DHT22;18176;49.502;11.754;2023-04-03T22:03:18;1.90;99.90
21184;DHT22;18176;49.502;11.754;2023-04-03T22:07:22;1.80;99.90
21184;DHT22;18176;49.502;11.754;2023-04-03T22:11:23;1.80;99.90
21184;DHT22;18176;49.502;11.754;2023-04-03T22:15:25;1.80;99.90
21184;DHT22;18176;49.502;11.754;2023-04-03T22:19:26;1.80;99.90
21184;DHT22;18176;49.502;11.754;2023-04-03T22:23:31;1.70;99.90
21184;DHT22;18176;49.502;11.754;2023-04-03T22:27:31;1.70;99.90
21184;DHT22;18176;49.502;11.754;2023-04-03T22:31:32;1.70;99.90
21184;DHT22;18176;49.502;11.754;2023-04-03T22:35:33;1.60;99.90
21184;DHT22;18176;49.502;11.754;2023-04-03T22:39:36;1.50;99.90
21184;DHT22;18176;49.502;11.754;2023-04-03T22:43:37;1.50;99.90
21184;DHT22;18176;49.502;11.754;2023-04-03T22:47:42;1.40;99.90
21184;DHT22;18176;49.502;11.754;2023-04-03T22:51:43;1.40;99.90
21184;DHT22;18176;49.502;11.754;2023-04-03T22:55:52;1.40;99.90
21184;DHT22;18176;49.502;11.754;2023-04-03T22:59:54;1.30;99.90
21184;DHT22;18176;49.502;11.754;2023-04-03T23:03:55;1.30;99.90
21184;DHT22;18176;49.502;11.754;2023-04-03T23:07:55;1.20;99.90
21184;DHT22;18176;49.502;11.754;2023-04-03T23:11:59;1.20;99.90
21184;DHT22;18176;49.502;11.754;2023-04-03T23:16:01;1.20;99.90
21184;DHT22;18176;49.502;11.754;2023-04-03T23:20:04;1.20;99.90
21184;DHT22;18176;49.502;11.754;2023-04-03T23:24:06;1.20;99.90
21184;DHT22;18176;49.502;11.754;2023-04-03T23:28:10;1.10;99.90
21184;DHT22;18176;49.502;11.754;2023-04-03T23:32:10;1.10;99.90
21184;DHT22;18176;49.502;11.754;2023-04-03T23:36:11;1.00;99.90
21184;DHT22;18176;49.502;11.754;2023-04-03T23:40:12;0.90;99.90
21184;DHT22;18176;49.502;11.754;2023-04-03T23:44:15;0.80;99.90
21184;DHT22;18176;49.502;11.754;2023-04-03T23:48:16;0.70;99.90
21184;DHT22;18176;49.502;11.754;2023-04-03T23:52:16;0.60;99.90
21184;DHT22;18176;49.502;11.754;2023-04-03T23:56:19;0.40;99.90
